sensor_id;sensor_type;location;lat;lon;timestamp;P1;durP1;ratioP1;P2;durP2;ratioP2
33152;SDS011;19509;43.862;26.176;2023-04-01T00:01:19;1.80;;;1.80;;
33152;SDS011;19509;43.862;26.176;2023-04-01T00:03:45;1.40;;;1.40;;
33152;SDS011;19509;43.862;26.176;2023-04-01T00:06:14;1.20;;;1.20;;
33152;SDS011;19509;43.862;26.176;2023-04-01T00:08:41;1.63;;;1.63;;
33152;SDS011;19509;43.862;26.176;2023-04-01T00:11:07;1.60;;;1.60;;
33152;SDS011;19509;43.862;26.176;2023-04-01T00:13:33;1.40;;;1.40;;
33152;SDS011;19509;43.862;26.176;2023-04-01T00:15:59;1.20;;;1.20;;
33152;SDS011;19509;43.862;26.176;2023-04-01T00:18:26;1.00;;;1.00;;
33152;SDS011;19509;43.862;26.176;2023-04-01T00:20:52;0.97;;;0.97;;
33152;SDS011;19509;43.862;26.176;2023-04-01T00:23:18;0.93;;;0.93;;
33152;SDS011;19509;43.862;26.176;2023-04-01T00:25:44;1.03;;;1.03;;
33152;SDS011;19509;43.862;26.176;2023-04-01T00:28:13;1.00;;;1.00;;
33152;SDS011;19509;43.862;26.176;2023-04-01T00:30:39;1.33;;;1.33;;
33152;SDS011;19509;43.862;26.176;2023-04-01T00:33:05;1.60;;;1.60;;
33152;SDS011;19509;43.862;26.176;2023-04-01T00:35:30;1.07;;;1.07;;
33152;SDS011;19509;43.862;26.176;2023-04-01T00:37:57;0.93;;;0.93;;
33152;SDS011;19509;43.862;26.176;2023-04-01T00:40:45;1.00;;;1.00;;
33152;SDS011;19509;43.862;26.176;2023-04-01T00:43:17;0.93;;;0.93;;
33152;SDS011;19509;43.862;26.176;2023-04-01T00:45:46;0.90;;;0.90;;
33152;SDS011;19509;43.862;26.176;2023-04-01T00:48:17;1.03;;;1.03;;
33152;SDS011;19509;43.862;26.176;2023-04-01T00:50:48;1.20;;;1.20;;
33152;SDS011;19509;43.862;26.176;2023-04-01T00:53:16;1.20;;;1.20;;
33152;SDS011;19509;43.862;26.176;2023-04-01T00:55:46;1.20;;;1.20;;
33152;SDS011;19509;43.862;26.176;2023-04-01T00:58:17;0.97;;;0.97;;
33152;SDS011;19509;43.862;26.176;2023-04-01T01:00:46;1.40;;;1.40;;
33152;SDS011;19509;43.862;26.176;2023-04-01T01:03:14;1.40;;;1.40;;
33152;SDS011;19509;43.862;26.176;2023-04-01T01:05:55;1.30;;;1.30;;
33152;SDS011;19509;43.862;26.176;2023-04-01T01:08:37;1.00;;;1.00;;
33152;SDS011;19509;43.862;26.176;2023-04-01T01:11:08;1.10;;;1.10;;
33152;SDS011;19509;43.862;26.176;2023-04-01T01:13:43;0.90;;;0.90;;
33152;SDS011;19509;43.862;26.176;2023-04-01T01:16:30;1.00;;;1.00;;
33152;SDS011;19509;43.862;26.176;2023-04-01T01:22:07;0.90;;;0.90;;
33152;SDS011;19509;43.862;26.176;2023-04-01T01:33:36;1.00;;;1.00;;
33152;SDS011;19509;43.862;26.176;2023-04-01T01:36:17;0.97;;;0.97;;
33152;SDS011;19509;43.862;26.176;2023-04-01T01:38:46;1.10;;;1.10;;
33152;SDS011;19509;43.862;26.176;2023-04-01T01:41:13;0.90;;;0.90;;
33152;SDS011;19509;43.862;26.176;2023-04-01T01:43:43;1.07;;;1.07;;
33152;SDS011;19509;43.862;26.176;2023-04-01T01:46:13;0.87;;;0.87;;
33152;SDS011;19509;43.862;26.176;2023-04-01T01:48:41;1.10;;;1.10;;
33152;SDS011;19509;43.862;26.176;2023-04-01T01:51:08;0.90;;;0.90;;
33152;SDS011;19509;43.862;26.176;2023-04-01T01:53:34;1.00;;;1.00;;
33152;SDS011;19509;43.862;26.176;2023-04-01T01:56:00;1.03;;;1.03;;
33152;SDS011;19509;43.862;26.176;2023-04-01T01:58:37;1.17;;;1.17;;
33152;SDS011;19509;43.862;26.176;2023-04-01T02:01:17;1.00;;;1.00;;
33152;SDS011;19509;43.862;26.176;2023-04-01T02:03:46;1.00;;;1.00;;
33152;SDS011;19509;43.862;26.176;2023-04-01T02:06:15;1.30;;;1.30;;
33152;SDS011;19509;43.862;26.176;2023-04-01T02:08:54;1.10;;;1.10;;
33152;SDS011;19509;43.862;26.176;2023-04-01T02:11:50;0.93;;;0.93;;
33152;SDS011;19509;43.862;26.176;2023-04-01T02:14:24;1.07;;;1.07;;
33152;SDS011;19509;43.862;26.176;2023-04-01T02:19:19;1.10;;;1.10;;
33152;SDS011;19509;43.862;26.176;2023-04-01T02:21:51;0.90;;;0.90;;
33152;SDS011;19509;43.862;26.176;2023-04-01T02:24:22;1.10;;;1.10;;
33152;SDS011;19509;43.862;26.176;2023-04-01T02:26:50;1.20;;;1.20;;
33152;SDS011;19509;43.862;26.176;2023-04-01T02:29:18;1.20;;;1.20;;
33152;SDS011;19509;43.862;26.176;2023-04-01T02:31:45;1.20;;;1.20;;
33152;SDS011;19509;43.862;26.176;2023-04-01T02:34:11;1.13;;;1.13;;
33152;SDS011;19509;43.862;26.176;2023-04-01T02:36:37;1.10;;;1.10;;
33152;SDS011;19509;43.862;26.176;2023-04-01T02:39:03;1.50;;;1.50;;
33152;SDS011;19509;43.862;26.176;2023-04-01T02:41:30;1.50;;;1.50;;
33152;SDS011;19509;43.862;26.176;2023-04-01T02:43:56;1.10;;;1.10;;
33152;SDS011;19509;43.862;26.176;2023-04-01T02:46:23;1.10;;;1.10;;
33152;SDS011;19509;43.862;26.176;2023-04-01T02:48:49;1.00;;;1.00;;
33152;SDS011;19509;43.862;26.176;2023-04-01T02:51:15;1.37;;;1.37;;
33152;SDS011;19509;43.862;26.176;2023-04-01T02:53:40;1.00;;;1.00;;
33152;SDS011;19509;43.862;26.176;2023-04-01T02:56:06;1.20;;;1.20;;
33152;SDS011;19509;43.862;26.176;2023-04-01T02:58:32;1.10;;;1.10;;
33152;SDS011;19509;43.862;26.176;2023-04-01T03:00:57;1.10;;;1.10;;
33152;SDS011;19509;43.862;26.176;2023-04-01T03:03:22;1.17;;;1.17;;
33152;SDS011;19509;43.862;26.176;2023-04-01T03:05:48;1.20;;;1.20;;
33152;SDS011;19509;43.862;26.176;2023-04-01T03:08:13;1.10;;;1.10;;
33152;SDS011;19509;43.862;26.176;2023-04-01T03:10:39;1.17;;;1.17;;
33152;SDS011;19509;43.862;26.176;2023-04-01T03:13:05;1.20;;;1.20;;
33152;SDS011;19509;43.862;26.176;2023-04-01T03:15:31;1.23;;;1.23;;
33152;SDS011;19509;43.862;26.176;2023-04-01T03:17:56;2.40;;;1.20;;
33152;SDS011;19509;43.862;26.176;2023-04-01T03:20:22;1.00;;;1.00;;
33152;SDS011;19509;43.862;26.176;2023-04-01T03:22:47;1.17;;;1.17;;
33152;SDS011;19509;43.862;26.176;2023-04-01T03:25:13;1.00;;;1.00;;
33152;SDS011;19509;43.862;26.176;2023-04-01T03:27:39;1.00;;;1.00;;
33152;SDS011;19509;43.862;26.176;2023-04-01T03:30:05;1.00;;;1.00;;
33152;SDS011;19509;43.862;26.176;2023-04-01T03:32:32;0.93;;;0.93;;
33152;SDS011;19509;43.862;26.176;2023-04-01T03:34:57;1.10;;;1.10;;
33152;SDS011;19509;43.862;26.176;2023-04-01T03:37:23;0.90;;;0.90;;
33152;SDS011;19509;43.862;26.176;2023-04-01T03:39:49;0.90;;;0.90;;
33152;SDS011;19509;43.862;26.176;2023-04-01T03:42:15;0.93;;;0.93;;
33152;SDS011;19509;43.862;26.176;2023-04-01T03:44:41;1.23;;;1.23;;
33152;SDS011;19509;43.862;26.176;2023-04-01T03:47:06;1.97;;;1.97;;
33152;SDS011;19509;43.862;26.176;2023-04-01T03:49:34;1.50;;;1.50;;
33152;SDS011;19509;43.862;26.176;2023-04-01T03:51:59;1.80;;;1.80;;
33152;SDS011;19509;43.862;26.176;2023-04-01T03:54:25;1.70;;;1.70;;
33152;SDS011;19509;43.862;26.176;2023-04-01T03:56:50;1.30;;;1.30;;
33152;SDS011;19509;43.862;26.176;2023-04-01T03:59:16;1.20;;;1.20;;
33152;SDS011;19509;43.862;26.176;2023-04-01T04:01:41;1.10;;;1.10;;
33152;SDS011;19509;43.862;26.176;2023-04-01T04:04:07;1.10;;;1.10;;
33152;SDS011;19509;43.862;26.176;2023-04-01T04:06:35;1.03;;;1.03;;
33152;SDS011;19509;43.862;26.176;2023-04-01T04:09:01;1.20;;;1.20;;
33152;SDS011;19509;43.862;26.176;2023-04-01T04:11:26;1.10;;;1.10;;
33152;SDS011;19509;43.862;26.176;2023-04-01T04:13:52;0.87;;;0.87;;
33152;SDS011;19509;43.862;26.176;2023-04-01T04:16:18;1.10;;;1.10;;
33152;SDS011;19509;43.862;26.176;2023-04-01T04:18:43;1.10;;;1.10;;
33152;SDS011;19509;43.862;26.176;2023-04-01T04:21:13;1.17;;;1.17;;
33152;SDS011;19509;43.862;26.176;2023-04-01T04:23:40;1.00;;;1.00;;
33152;SDS011;19509;43.862;26.176;2023-04-01T04:26:07;1.10;;;1.10;;
33152;SDS011;19509;43.862;26.176;2023-04-01T04:28:34;1.00;;;1.00;;
33152;SDS011;19509;43.862;26.176;2023-04-01T04:31:00;1.10;;;1.10;;
33152;SDS011;19509;43.862;26.176;2023-04-01T04:33:26;1.10;;;1.10;;
33152;SDS011;19509;43.862;26.176;2023-04-01T04:35:54;1.00;;;1.00;;
33152;SDS011;19509;43.862;26.176;2023-04-01T04:38:21;0.90;;;0.90;;
33152;SDS011;19509;43.862;26.176;2023-04-01T04:40:47;1.00;;;1.00;;
33152;SDS011;19509;43.862;26.176;2023-04-01T04:43:13;1.00;;;1.00;;
33152;SDS011;19509;43.862;26.176;2023-04-01T04:45:40;1.10;;;1.10;;
33152;SDS011;19509;43.862;26.176;2023-04-01T04:48:07;0.90;;;0.90;;
33152;SDS011;19509;43.862;26.176;2023-04-01T04:50:34;0.90;;;0.90;;
33152;SDS011;19509;43.862;26.176;2023-04-01T04:52:59;1.10;;;1.10;;
33152;SDS011;19509;43.862;26.176;2023-04-01T04:55:25;0.90;;;0.90;;
33152;SDS011;19509;43.862;26.176;2023-04-01T04:57:51;0.90;;;0.90;;
33152;SDS011;19509;43.862;26.176;2023-04-01T05:00:16;0.83;;;0.83;;
33152;SDS011;19509;43.862;26.176;2023-04-01T05:02:42;1.10;;;1.10;;
33152;SDS011;19509;43.862;26.176;2023-04-01T05:05:08;1.30;;;1.30;;
33152;SDS011;19509;43.862;26.176;2023-04-01T05:07:33;1.30;;;1.30;;
33152;SDS011;19509;43.862;26.176;2023-04-01T05:09:59;1.60;;;1.60;;
33152;SDS011;19509;43.862;26.176;2023-04-01T05:12:25;1.50;;;1.50;;
33152;SDS011;19509;43.862;26.176;2023-04-01T05:14:50;1.57;;;1.57;;
33152;SDS011;19509;43.862;26.176;2023-04-01T05:17:16;1.47;;;1.47;;
33152;SDS011;19509;43.862;26.176;2023-04-01T05:19:41;1.07;;;1.07;;
33152;SDS011;19509;43.862;26.176;2023-04-01T05:22:07;1.17;;;1.17;;
33152;SDS011;19509;43.862;26.176;2023-04-01T05:24:35;1.40;;;1.40;;
33152;SDS011;19509;43.862;26.176;2023-04-01T05:27:01;1.07;;;1.07;;
33152;SDS011;19509;43.862;26.176;2023-04-01T05:29:27;2.37;;;1.33;;
33152;SDS011;19509;43.862;26.176;2023-04-01T05:31:52;1.20;;;1.20;;
33152;SDS011;19509;43.862;26.176;2023-04-01T05:34:18;1.80;;;1.80;;
33152;SDS011;19509;43.862;26.176;2023-04-01T05:36:44;1.30;;;1.20;;
33152;SDS011;19509;43.862;26.176;2023-04-01T05:39:09;0.90;;;0.90;;
33152;SDS011;19509;43.862;26.176;2023-04-01T05:41:35;0.80;;;0.80;;
33152;SDS011;19509;43.862;26.176;2023-04-01T05:44:01;1.30;;;1.30;;
33152;SDS011;19509;43.862;26.176;2023-04-01T05:46:27;1.17;;;1.17;;
33152;SDS011;19509;43.862;26.176;2023-04-01T05:48:52;0.90;;;0.90;;
33152;SDS011;19509;43.862;26.176;2023-04-01T05:51:18;0.80;;;0.80;;
33152;SDS011;19509;43.862;26.176;2023-04-01T05:53:44;0.90;;;0.90;;
33152;SDS011;19509;43.862;26.176;2023-04-01T05:56:09;1.40;;;1.40;;
33152;SDS011;19509;43.862;26.176;2023-04-01T05:58:35;1.60;;;1.60;;
33152;SDS011;19509;43.862;26.176;2023-04-01T06:01:02;2.20;;;2.00;;
33152;SDS011;19509;43.862;26.176;2023-04-01T06:03:28;1.70;;;1.70;;
33152;SDS011;19509;43.862;26.176;2023-04-01T06:05:54;1.20;;;1.20;;
33152;SDS011;19509;43.862;26.176;2023-04-01T06:08:19;0.90;;;0.90;;
33152;SDS011;19509;43.862;26.176;2023-04-01T06:16:15;0.83;;;0.83;;
33152;SDS011;19509;43.862;26.176;2023-04-01T06:18:52;0.80;;;0.80;;
33152;SDS011;19509;43.862;26.176;2023-04-01T06:48:26;2.40;;;0.77;;
33152;SDS011;19509;43.862;26.176;2023-04-01T06:53:49;0.70;;;0.70;;
33152;SDS011;19509;43.862;26.176;2023-04-01T06:56:27;0.60;;;0.60;;
33152;SDS011;19509;43.862;26.176;2023-04-01T06:59:27;0.70;;;0.70;;
33152;SDS011;19509;43.862;26.176;2023-04-01T07:04:36;0.80;;;0.80;;
33152;SDS011;19509;43.862;26.176;2023-04-01T07:07:09;0.80;;;0.80;;
33152;SDS011;19509;43.862;26.176;2023-04-01T07:09:43;0.90;;;0.90;;
33152;SDS011;19509;43.862;26.176;2023-04-01T07:12:17;0.70;;;0.70;;
33152;SDS011;19509;43.862;26.176;2023-04-01T07:14:53;0.80;;;0.80;;
33152;SDS011;19509;43.862;26.176;2023-04-01T07:17:21;0.70;;;0.70;;
33152;SDS011;19509;43.862;26.176;2023-04-01T07:19:59;0.77;;;0.77;;
33152;SDS011;19509;43.862;26.176;2023-04-01T07:22:49;0.80;;;0.80;;
33152;SDS011;19509;43.862;26.176;2023-04-01T07:25:18;1.00;;;1.00;;
33152;SDS011;19509;43.862;26.176;2023-04-01T07:27:46;1.27;;;1.27;;
33152;SDS011;19509;43.862;26.176;2023-04-01T07:30:16;2.37;;;2.37;;
33152;SDS011;19509;43.862;26.176;2023-04-01T07:35:38;1.90;;;1.90;;
33152;SDS011;19509;43.862;26.176;2023-04-01T07:38:15;5.67;;;5.47;;
33152;SDS011;19509;43.862;26.176;2023-04-01T07:44:08;3.93;;;3.83;;
33152;SDS011;19509;43.862;26.176;2023-04-01T07:46:49;1.97;;;1.97;;
33152;SDS011;19509;43.862;26.176;2023-04-01T07:49:17;1.77;;;1.77;;
33152;SDS011;19509;43.862;26.176;2023-04-01T07:51:56;2.30;;;2.20;;
33152;SDS011;19509;43.862;26.176;2023-04-01T07:54:39;1.40;;;1.40;;
33152;SDS011;19509;43.862;26.176;2023-04-01T07:57:27;1.43;;;1.43;;
33152;SDS011;19509;43.862;26.176;2023-04-01T08:05:06;0.67;;;0.67;;
33152;SDS011;19509;43.862;26.176;2023-04-01T08:07:58;0.77;;;0.77;;
33152;SDS011;19509;43.862;26.176;2023-04-01T08:10:50;0.67;;;0.67;;
33152;SDS011;19509;43.862;26.176;2023-04-01T08:23:57;1.03;;;1.03;;
33152;SDS011;19509;43.862;26.176;2023-04-01T08:29:17;0.90;;;0.87;;
33152;SDS011;19509;43.862;26.176;2023-04-01T08:31:56;0.80;;;0.80;;
33152;SDS011;19509;43.862;26.176;2023-04-01T08:37:47;0.90;;;0.90;;
33152;SDS011;19509;43.862;26.176;2023-04-01T08:45:53;0.70;;;0.70;;
33152;SDS011;19509;43.862;26.176;2023-04-01T09:08:25;0.70;;;0.70;;
33152;SDS011;19509;43.862;26.176;2023-04-01T09:16:16;0.77;;;0.77;;
33152;SDS011;19509;43.862;26.176;2023-04-01T09:26:34;1.03;;;1.03;;
33152;SDS011;19509;43.862;26.176;2023-04-01T09:46:07;1.27;;;1.17;;
33152;SDS011;19509;43.862;26.176;2023-04-01T10:29:44;0.90;;;0.90;;
33152;SDS011;19509;43.862;26.176;2023-04-01T10:35:53;0.90;;;0.90;;
33152;SDS011;19509;43.862;26.176;2023-04-01T10:44:30;0.70;;;0.70;;
33152;SDS011;19509;43.862;26.176;2023-04-01T10:55:48;0.90;;;0.90;;
33152;SDS011;19509;43.862;26.176;2023-04-01T11:26:50;0.87;;;0.87;;
33152;SDS011;19509;43.862;26.176;2023-04-01T11:43:45;0.87;;;0.87;;
33152;SDS011;19509;43.862;26.176;2023-04-01T11:49:36;0.80;;;0.80;;
33152;SDS011;19509;43.862;26.176;2023-04-01T11:52:25;0.80;;;0.80;;
33152;SDS011;19509;43.862;26.176;2023-04-01T11:55:02;2.97;;;1.10;;
33152;SDS011;19509;43.862;26.176;2023-04-01T12:05:58;0.90;;;0.90;;
33152;SDS011;19509;43.862;26.176;2023-04-01T12:08:45;0.80;;;0.80;;
33152;SDS011;19509;43.862;26.176;2023-04-01T12:14:10;0.77;;;0.77;;
33152;SDS011;19509;43.862;26.176;2023-04-01T12:19:41;1.00;;;1.00;;
33152;SDS011;19509;43.862;26.176;2023-04-01T12:24:56;0.80;;;0.80;;
33152;SDS011;19509;43.862;26.176;2023-04-01T12:36:23;0.90;;;0.90;;
33152;SDS011;19509;43.862;26.176;2023-04-01T13:07:59;0.90;;;0.90;;
33152;SDS011;19509;43.862;26.176;2023-04-01T13:18:31;1.10;;;1.10;;
33152;SDS011;19509;43.862;26.176;2023-04-01T13:21:19;0.90;;;0.90;;
33152;SDS011;19509;43.862;26.176;2023-04-01T13:30:02;1.00;;;1.00;;
33152;SDS011;19509;43.862;26.176;2023-04-01T13:37:56;0.90;;;0.90;;
33152;SDS011;19509;43.862;26.176;2023-04-01T13:43:20;1.00;;;1.00;;
33152;SDS011;19509;43.862;26.176;2023-04-01T13:46:39;0.80;;;0.80;;
33152;SDS011;19509;43.862;26.176;2023-04-01T13:56:33;1.00;;;1.00;;
33152;SDS011;19509;43.862;26.176;2023-04-01T14:10:40;0.90;;;0.90;;
33152;SDS011;19509;43.862;26.176;2023-04-01T14:16:57;1.00;;;1.00;;
33152;SDS011;19509;43.862;26.176;2023-04-01T14:22:38;0.97;;;0.97;;
33152;SDS011;19509;43.862;26.176;2023-04-01T14:30:42;1.00;;;1.00;;
33152;SDS011;19509;43.862;26.176;2023-04-01T14:33:23;1.10;;;1.10;;
33152;SDS011;19509;43.862;26.176;2023-04-01T14:36:30;1.00;;;1.00;;
33152;SDS011;19509;43.862;26.176;2023-04-01T14:50:14;1.37;;;1.27;;
33152;SDS011;19509;43.862;26.176;2023-04-01T14:52:44;1.40;;;1.40;;
33152;SDS011;19509;43.862;26.176;2023-04-01T14:55:31;1.20;;;1.20;;
33152;SDS011;19509;43.862;26.176;2023-04-01T14:58:08;1.30;;;1.30;;
33152;SDS011;19509;43.862;26.176;2023-04-01T15:14:44;1.20;;;1.20;;
33152;SDS011;19509;43.862;26.176;2023-04-01T15:17:48;1.50;;;1.50;;
33152;SDS011;19509;43.862;26.176;2023-04-01T15:20:34;1.40;;;1.40;;
33152;SDS011;19509;43.862;26.176;2023-04-01T15:29:06;1.27;;;1.27;;
33152;SDS011;19509;43.862;26.176;2023-04-01T15:31:37;1.40;;;1.40;;
33152;SDS011;19509;43.862;26.176;2023-04-01T15:39:57;2.20;;;2.20;;
33152;SDS011;19509;43.862;26.176;2023-04-01T15:47:58;1.00;;;1.00;;
33152;SDS011;19509;43.862;26.176;2023-04-01T15:55:43;1.67;;;1.07;;
33152;SDS011;19509;43.862;26.176;2023-04-01T16:07:08;1.10;;;1.10;;
33152;SDS011;19509;43.862;26.176;2023-04-01T16:12:16;0.80;;;0.80;;
33152;SDS011;19509;43.862;26.176;2023-04-01T16:14:49;0.90;;;0.90;;
33152;SDS011;19509;43.862;26.176;2023-04-01T16:25:49;1.00;;;1.00;;
33152;SDS011;19509;43.862;26.176;2023-04-01T16:28:29;1.30;;;1.30;;
33152;SDS011;19509;43.862;26.176;2023-04-01T16:33:58;1.20;;;1.20;;
33152;SDS011;19509;43.862;26.176;2023-04-01T16:45:08;1.27;;;1.27;;
33152;SDS011;19509;43.862;26.176;2023-04-01T16:47:49;1.60;;;1.60;;
33152;SDS011;19509;43.862;26.176;2023-04-01T16:50:39;1.30;;;1.30;;
33152;SDS011;19509;43.862;26.176;2023-04-01T17:01:29;4.50;;;4.40;;
33152;SDS011;19509;43.862;26.176;2023-04-01T17:04:23;4.30;;;4.20;;
33152;SDS011;19509;43.862;26.176;2023-04-01T17:23:01;1.50;;;1.50;;
33152;SDS011;19509;43.862;26.176;2023-04-01T17:34:11;1.27;;;1.27;;
33152;SDS011;19509;43.862;26.176;2023-04-01T17:42:42;1.20;;;1.20;;
33152;SDS011;19509;43.862;26.176;2023-04-01T17:47:49;1.00;;;1.00;;
33152;SDS011;19509;43.862;26.176;2023-04-01T18:17:31;1.67;;;1.67;;
33152;SDS011;19509;43.862;26.176;2023-04-01T18:20:43;1.83;;;1.83;;
33152;SDS011;19509;43.862;26.176;2023-04-01T18:25:53;2.07;;;2.07;;
33152;SDS011;19509;43.862;26.176;2023-04-01T18:28:44;2.70;;;2.60;;
33152;SDS011;19509;43.862;26.176;2023-04-01T18:31:18;3.03;;;2.93;;
33152;SDS011;19509;43.862;26.176;2023-04-01T18:33:56;3.10;;;3.00;;
33152;SDS011;19509;43.862;26.176;2023-04-01T18:36:39;3.13;;;3.13;;
33152;SDS011;19509;43.862;26.176;2023-04-01T18:39:17;1.93;;;1.93;;
33152;SDS011;19509;43.862;26.176;2023-04-01T18:47:20;1.10;;;1.10;;
33152;SDS011;19509;43.862;26.176;2023-04-01T18:53:00;1.10;;;1.10;;
33152;SDS011;19509;43.862;26.176;2023-04-01T18:58:35;1.10;;;1.10;;
33152;SDS011;19509;43.862;26.176;2023-04-01T19:06:45;1.30;;;1.30;;
33152;SDS011;19509;43.862;26.176;2023-04-01T19:20:03;1.60;;;1.60;;
33152;SDS011;19509;43.862;26.176;2023-04-01T19:23:17;1.20;;;1.20;;
33152;SDS011;19509;43.862;26.176;2023-04-01T19:26:00;1.20;;;1.20;;
33152;SDS011;19509;43.862;26.176;2023-04-01T19:31:33;1.47;;;1.47;;
33152;SDS011;19509;43.862;26.176;2023-04-01T19:42:48;1.57;;;1.57;;
33152;SDS011;19509;43.862;26.176;2023-04-01T19:45:39;1.20;;;1.20;;
33152;SDS011;19509;43.862;26.176;2023-04-01T19:50:59;1.10;;;1.10;;
33152;SDS011;19509;43.862;26.176;2023-04-01T20:02:01;1.30;;;1.30;;
33152;SDS011;19509;43.862;26.176;2023-04-01T20:04:42;1.10;;;1.10;;
33152;SDS011;19509;43.862;26.176;2023-04-01T20:07:37;1.10;;;1.10;;
33152;SDS011;19509;43.862;26.176;2023-04-01T20:10:33;0.90;;;0.90;;
33152;SDS011;19509;43.862;26.176;2023-04-01T20:13:25;1.10;;;1.10;;
33152;SDS011;19509;43.862;26.176;2023-04-01T20:16:14;1.10;;;1.10;;
33152;SDS011;19509;43.862;26.176;2023-04-01T20:18:57;0.93;;;0.93;;
33152;SDS011;19509;43.862;26.176;2023-04-01T20:21:41;1.20;;;1.20;;
33152;SDS011;19509;43.862;26.176;2023-04-01T20:27:00;1.10;;;1.10;;
33152;SDS011;19509;43.862;26.176;2023-04-01T20:37:53;1.10;;;1.10;;
33152;SDS011;19509;43.862;26.176;2023-04-01T20:40:34;0.90;;;0.90;;
33152;SDS011;19509;43.862;26.176;2023-04-01T20:45:42;0.80;;;0.80;;
33152;SDS011;19509;43.862;26.176;2023-04-01T20:48:27;0.80;;;0.80;;
33152;SDS011;19509;43.862;26.176;2023-04-01T20:53:43;0.63;;;0.63;;
33152;SDS011;19509;43.862;26.176;2023-04-01T20:56:36;0.60;;;0.60;;
33152;SDS011;19509;43.862;26.176;2023-04-01T21:16:26;0.60;;;0.60;;
33152;SDS011;19509;43.862;26.176;2023-04-01T21:19:14;0.60;;;0.60;;
33152;SDS011;19509;43.862;26.176;2023-04-01T21:35:44;0.80;;;0.80;;
33152;SDS011;19509;43.862;26.176;2023-04-01T21:41:57;0.97;;;0.97;;
33152;SDS011;19509;43.862;26.176;2023-04-01T22:00:37;0.70;;;0.70;;
33152;SDS011;19509;43.862;26.176;2023-04-01T22:24:37;0.60;;;0.60;;
33152;SDS011;19509;43.862;26.176;2023-04-01T22:30:37;0.60;;;0.60;;
33152;SDS011;19509;43.862;26.176;2023-04-01T22:42:19;0.60;;;0.60;;
33152;SDS011;19509;43.862;26.176;2023-04-01T22:45:06;0.60;;;0.60;;
33152;SDS011;19509;43.862;26.176;2023-04-01T22:50:23;0.60;;;0.60;;
33152;SDS011;19509;43.862;26.176;2023-04-01T22:53:08;0.60;;;0.60;;
33152;SDS011;19509;43.862;26.176;2023-04-01T22:55:54;0.50;;;0.50;;
33152;SDS011;19509;43.862;26.176;2023-04-01T22:58:30;0.60;;;0.60;;
33152;SDS011;19509;43.862;26.176;2023-04-01T23:01:14;0.60;;;0.60;;
33152;SDS011;19509;43.862;26.176;2023-04-01T23:03:46;0.70;;;0.70;;
33152;SDS011;19509;43.862;26.176;2023-04-01T23:06:49;0.50;;;0.50;;
33152;SDS011;19509;43.862;26.176;2023-04-01T23:09:23;0.60;;;0.60;;
33152;SDS011;19509;43.862;26.176;2023-04-01T23:11:58;0.60;;;0.60;;
33152;SDS011;19509;43.862;26.176;2023-04-01T23:14:50;0.60;;;0.60;;
33152;SDS011;19509;43.862;26.176;2023-04-01T23:17:41;0.50;;;0.50;;
33152;SDS011;19509;43.862;26.176;2023-04-01T23:20:24;0.50;;;0.50;;
33152;SDS011;19509;43.862;26.176;2023-04-01T23:31:58;0.60;;;0.60;;
33152;SDS011;19509;43.862;26.176;2023-04-01T23:34:02;0.60;;;0.60;;
33152;SDS011;19509;43.862;26.176;2023-04-01T23:36:30;0.57;;;0.57;;
33152;SDS011;19509;43.862;26.176;2023-04-01T23:44:44;0.60;;;0.60;;
33152;SDS011;19509;43.862;26.176;2023-04-01T23:47:18;0.50;;;0.50;;
33152;SDS011;19509;43.862;26.176;2023-04-01T23:49:53;0.60;;;0.60;;
33152;SDS011;19509;43.862;26.176;2023-04-01T23:52:35;0.50;;;0.50;;
33152;SDS011;19509;43.862;26.176;2023-04-01T23:58:00;0.60;;;0.60;;
